KSBO

East Georgia Regional Airport

Swainsboro, Georgia, USA
METAR KSBO 181315Z AUTO 00000KT 10SM OVC015 11/10 A3015 RMK AO2
Observed Flight Rules
Jan-18 @ 13:15 UTC (34 minutes ago) Marginal Visual Flight Rules
Visibility Clouds
10 miles
  • Overcast at 1,500' AGL
Temperatures Readings
Current 11°C / 52°F
Dewpoint 10°C / 50°F
Humidity 94%
Altimeter 30.15" Hg
Pressure 1021.02 hPa
Elevation 100
METAR KSBO 181315Z AUTO 00000KT 10SM OVC015 11/10 A3015 RMK AO2
Observed Flight Rules
Jan-18 @ 13:15 UTC
(34 minutes ago)
MVFR
Clouds
  • Overcast at 1,500' AGL
Temperature Dewpoint
11°C / 52°F 10°C / 50°F
Humidity Altimeter Pressure
94% 30.15" Hg 1021.02 hPa